sensor_id;sensor_type;location;lat;lon;timestamp;P1;durP1;ratioP1;P2;durP2;ratioP2
59555;SDS011;45374;52.746;6.304;2023-04-08T00:01:46;13.85;;;9.43;;
59555;SDS011;45374;52.746;6.304;2023-04-08T00:04:12;14.32;;;9.95;;
59555;SDS011;45374;52.746;6.304;2023-04-08T00:06:38;17.05;;;9.55;;
59555;SDS011;45374;52.746;6.304;2023-04-08T00:09:04;14.82;;;9.65;;
59555;SDS011;45374;52.746;6.304;2023-04-08T00:11:29;14.73;;;9.48;;
59555;SDS011;45374;52.746;6.304;2023-04-08T00:13:55;17.35;;;10.02;;
59555;SDS011;45374;52.746;6.304;2023-04-08T00:16:20;17.67;;;9.48;;
59555;SDS011;45374;52.746;6.304;2023-04-08T00:18:46;15.38;;;9.88;;
59555;SDS011;45374;52.746;6.304;2023-04-08T00:21:13;15.10;;;9.82;;
59555;SDS011;45374;52.746;6.304;2023-04-08T00:23:41;14.63;;;9.38;;
59555;SDS011;45374;52.746;6.304;2023-04-08T00:26:07;16.67;;;9.52;;
59555;SDS011;45374;52.746;6.304;2023-04-08T00:28:33;17.23;;;10.55;;
59555;SDS011;45374;52.746;6.304;2023-04-08T00:30:58;15.98;;;9.52;;
59555;SDS011;45374;52.746;6.304;2023-04-08T00:33:24;16.48;;;9.60;;
59555;SDS011;45374;52.746;6.304;2023-04-08T00:35:50;17.40;;;9.68;;
59555;SDS011;45374;52.746;6.304;2023-04-08T00:38:16;16.08;;;9.88;;
59555;SDS011;45374;52.746;6.304;2023-04-08T00:40:41;16.13;;;9.80;;
59555;SDS011;45374;52.746;6.304;2023-04-08T00:43:07;16.65;;;9.68;;
59555;SDS011;45374;52.746;6.304;2023-04-08T00:45:32;15.15;;;9.95;;
59555;SDS011;45374;52.746;6.304;2023-04-08T00:47:58;17.88;;;9.85;;
59555;SDS011;45374;52.746;6.304;2023-04-08T00:50:24;19.58;;;10.10;;
59555;SDS011;45374;52.746;6.304;2023-04-08T00:52:55;14.65;;;9.38;;
59555;SDS011;45374;52.746;6.304;2023-04-08T00:55:21;17.13;;;9.53;;
59555;SDS011;45374;52.746;6.304;2023-04-08T00:57:47;15.07;;;9.68;;
59555;SDS011;45374;52.746;6.304;2023-04-08T01:00:13;17.58;;;9.77;;
59555;SDS011;45374;52.746;6.304;2023-04-08T01:05:27;14.73;;;9.75;;
59555;SDS011;45374;52.746;6.304;2023-04-08T01:08:02;19.50;;;9.35;;
59555;SDS011;45374;52.746;6.304;2023-04-08T01:10:32;17.23;;;9.70;;
59555;SDS011;45374;52.746;6.304;2023-04-08T01:13:00;15.80;;;9.35;;
59555;SDS011;45374;52.746;6.304;2023-04-08T01:15:34;18.40;;;9.77;;
59555;SDS011;45374;52.746;6.304;2023-04-08T01:18:04;16.23;;;10.00;;
59555;SDS011;45374;52.746;6.304;2023-04-08T01:20:32;16.38;;;10.10;;
59555;SDS011;45374;52.746;6.304;2023-04-08T01:23:01;18.83;;;10.18;;
59555;SDS011;45374;52.746;6.304;2023-04-08T01:25:37;16.25;;;9.55;;
59555;SDS011;45374;52.746;6.304;2023-04-08T01:28:08;16.58;;;9.35;;
59555;SDS011;45374;52.746;6.304;2023-04-08T01:30:39;20.73;;;9.98;;
59555;SDS011;45374;52.746;6.304;2023-04-08T01:33:06;16.08;;;9.35;;
59555;SDS011;45374;52.746;6.304;2023-04-08T01:35:36;16.52;;;9.82;;
59555;SDS011;45374;52.746;6.304;2023-04-08T01:38:02;14.50;;;9.40;;
59555;SDS011;45374;52.746;6.304;2023-04-08T01:40:29;14.70;;;9.20;;
59555;SDS011;45374;52.746;6.304;2023-04-08T01:42:57;15.07;;;8.98;;
59555;SDS011;45374;52.746;6.304;2023-04-08T01:45:24;16.52;;;9.93;;
59555;SDS011;45374;52.746;6.304;2023-04-08T01:47:51;17.65;;;10.15;;
59555;SDS011;45374;52.746;6.304;2023-04-08T01:50:17;16.80;;;9.85;;
59555;SDS011;45374;52.746;6.304;2023-04-08T01:52:45;15.23;;;10.00;;
59555;SDS011;45374;52.746;6.304;2023-04-08T01:55:13;16.10;;;9.95;;
59555;SDS011;45374;52.746;6.304;2023-04-08T01:57:40;17.67;;;10.38;;
59555;SDS011;45374;52.746;6.304;2023-04-08T02:00:11;17.90;;;10.48;;
59555;SDS011;45374;52.746;6.304;2023-04-08T02:02:38;20.58;;;10.30;;
59555;SDS011;45374;52.746;6.304;2023-04-08T02:05:06;17.73;;;10.00;;
59555;SDS011;45374;52.746;6.304;2023-04-08T02:07:32;16.25;;;10.20;;
59555;SDS011;45374;52.746;6.304;2023-04-08T02:09:58;17.75;;;10.13;;
59555;SDS011;45374;52.746;6.304;2023-04-08T02:12:24;17.58;;;10.55;;
59555;SDS011;45374;52.746;6.304;2023-04-08T02:14:51;18.70;;;10.50;;
59555;SDS011;45374;52.746;6.304;2023-04-08T02:17:23;18.45;;;10.25;;
59555;SDS011;45374;52.746;6.304;2023-04-08T02:19:59;17.77;;;10.38;;
59555;SDS011;45374;52.746;6.304;2023-04-08T02:22:40;19.50;;;10.93;;
59555;SDS011;45374;52.746;6.304;2023-04-08T02:25:15;22.23;;;10.50;;
59555;SDS011;45374;52.746;6.304;2023-04-08T02:27:42;19.35;;;11.27;;
59555;SDS011;45374;52.746;6.304;2023-04-08T02:30:10;19.92;;;10.68;;
59555;SDS011;45374;52.746;6.304;2023-04-08T02:32:37;19.92;;;11.40;;
59555;SDS011;45374;52.746;6.304;2023-04-08T02:35:03;20.67;;;11.00;;
59555;SDS011;45374;52.746;6.304;2023-04-08T02:37:30;18.45;;;10.68;;
59555;SDS011;45374;52.746;6.304;2023-04-08T02:39:56;18.27;;;11.30;;
59555;SDS011;45374;52.746;6.304;2023-04-08T02:42:23;19.65;;;11.07;;
59555;SDS011;45374;52.746;6.304;2023-04-08T02:44:49;20.85;;;11.77;;
59555;SDS011;45374;52.746;6.304;2023-04-08T02:47:15;20.55;;;11.50;;
59555;SDS011;45374;52.746;6.304;2023-04-08T02:49:41;20.33;;;11.75;;
59555;SDS011;45374;52.746;6.304;2023-04-08T02:52:06;21.38;;;11.55;;
59555;SDS011;45374;52.746;6.304;2023-04-08T02:54:32;18.90;;;11.30;;
59555;SDS011;45374;52.746;6.304;2023-04-08T02:56:57;21.45;;;11.35;;
59555;SDS011;45374;52.746;6.304;2023-04-08T02:59:23;20.70;;;11.57;;
59555;SDS011;45374;52.746;6.304;2023-04-08T03:01:49;18.52;;;11.52;;
59555;SDS011;45374;52.746;6.304;2023-04-08T03:04:15;20.67;;;11.88;;
59555;SDS011;45374;52.746;6.304;2023-04-08T03:06:40;21.00;;;11.73;;
59555;SDS011;45374;52.746;6.304;2023-04-08T03:09:06;22.92;;;11.75;;
59555;SDS011;45374;52.746;6.304;2023-04-08T03:11:32;20.27;;;11.48;;
59555;SDS011;45374;52.746;6.304;2023-04-08T03:13:58;20.77;;;11.05;;
59555;SDS011;45374;52.746;6.304;2023-04-08T03:16:23;22.80;;;12.77;;
59555;SDS011;45374;52.746;6.304;2023-04-08T03:18:49;18.95;;;11.88;;
59555;SDS011;45374;52.746;6.304;2023-04-08T03:21:15;22.17;;;11.73;;
59555;SDS011;45374;52.746;6.304;2023-04-08T03:23:41;21.52;;;11.90;;
59555;SDS011;45374;52.746;6.304;2023-04-08T03:26:07;23.83;;;11.57;;
59555;SDS011;45374;52.746;6.304;2023-04-08T03:28:33;23.83;;;11.68;;
59555;SDS011;45374;52.746;6.304;2023-04-08T03:30:59;20.02;;;11.85;;
59555;SDS011;45374;52.746;6.304;2023-04-08T03:33:25;22.65;;;12.88;;
59555;SDS011;45374;52.746;6.304;2023-04-08T03:35:52;23.60;;;11.98;;
59555;SDS011;45374;52.746;6.304;2023-04-08T03:38:18;21.70;;;12.60;;
59555;SDS011;45374;52.746;6.304;2023-04-08T03:40:43;24.40;;;13.23;;
59555;SDS011;45374;52.746;6.304;2023-04-08T03:43:09;22.70;;;12.27;;
59555;SDS011;45374;52.746;6.304;2023-04-08T03:45:36;26.10;;;13.18;;
59555;SDS011;45374;52.746;6.304;2023-04-08T03:48:01;23.38;;;12.85;;
59555;SDS011;45374;52.746;6.304;2023-04-08T03:50:27;22.13;;;12.70;;
59555;SDS011;45374;52.746;6.304;2023-04-08T03:52:53;24.75;;;12.70;;
59555;SDS011;45374;52.746;6.304;2023-04-08T03:55:18;21.77;;;11.75;;
59555;SDS011;45374;52.746;6.304;2023-04-08T03:57:44;22.50;;;12.45;;
59555;SDS011;45374;52.746;6.304;2023-04-08T04:00:10;22.88;;;12.68;;
59555;SDS011;45374;52.746;6.304;2023-04-08T04:02:36;25.05;;;13.15;;
59555;SDS011;45374;52.746;6.304;2023-04-08T04:05:01;26.52;;;13.48;;
59555;SDS011;45374;52.746;6.304;2023-04-08T04:07:27;27.45;;;13.25;;
59555;SDS011;45374;52.746;6.304;2023-04-08T04:09:52;25.75;;;13.40;;
59555;SDS011;45374;52.746;6.304;2023-04-08T04:12:20;26.10;;;14.20;;
59555;SDS011;45374;52.746;6.304;2023-04-08T04:14:46;24.67;;;13.55;;
59555;SDS011;45374;52.746;6.304;2023-04-08T04:17:12;24.10;;;13.70;;
59555;SDS011;45374;52.746;6.304;2023-04-08T04:19:37;27.42;;;14.40;;
59555;SDS011;45374;52.746;6.304;2023-04-08T04:22:03;27.42;;;14.50;;
59555;SDS011;45374;52.746;6.304;2023-04-08T04:24:28;25.00;;;14.30;;
59555;SDS011;45374;52.746;6.304;2023-04-08T04:26:54;29.55;;;15.20;;
59555;SDS011;45374;52.746;6.304;2023-04-08T04:29:19;28.98;;;15.57;;
59555;SDS011;45374;52.746;6.304;2023-04-08T04:31:45;26.17;;;14.38;;
59555;SDS011;45374;52.746;6.304;2023-04-08T04:34:10;29.45;;;15.18;;
59555;SDS011;45374;52.746;6.304;2023-04-08T04:36:36;29.08;;;15.32;;
59555;SDS011;45374;52.746;6.304;2023-04-08T04:39:01;27.73;;;15.20;;
59555;SDS011;45374;52.746;6.304;2023-04-08T04:41:27;29.63;;;15.48;;
59555;SDS011;45374;52.746;6.304;2023-04-08T04:43:53;26.77;;;15.25;;
59555;SDS011;45374;52.746;6.304;2023-04-08T04:46:18;28.55;;;15.00;;
59555;SDS011;45374;52.746;6.304;2023-04-08T04:48:44;32.63;;;16.08;;
59555;SDS011;45374;52.746;6.304;2023-04-08T04:51:09;28.65;;;15.68;;
59555;SDS011;45374;52.746;6.304;2023-04-08T04:53:35;29.45;;;15.90;;
59555;SDS011;45374;52.746;6.304;2023-04-08T04:56:00;28.98;;;15.70;;
59555;SDS011;45374;52.746;6.304;2023-04-08T04:58:26;30.33;;;17.05;;
59555;SDS011;45374;52.746;6.304;2023-04-08T05:00:52;30.50;;;16.23;;
59555;SDS011;45374;52.746;6.304;2023-04-08T05:03:18;33.53;;;16.65;;
59555;SDS011;45374;52.746;6.304;2023-04-08T05:05:43;32.63;;;16.83;;
59555;SDS011;45374;52.746;6.304;2023-04-08T05:08:09;33.38;;;17.02;;
59555;SDS011;45374;52.746;6.304;2023-04-08T05:10:35;33.13;;;17.20;;
59555;SDS011;45374;52.746;6.304;2023-04-08T05:13:00;33.05;;;17.23;;
59555;SDS011;45374;52.746;6.304;2023-04-08T05:15:26;31.80;;;17.20;;
59555;SDS011;45374;52.746;6.304;2023-04-08T05:17:51;32.17;;;17.13;;
59555;SDS011;45374;52.746;6.304;2023-04-08T05:20:17;35.38;;;17.23;;
59555;SDS011;45374;52.746;6.304;2023-04-08T05:22:42;36.10;;;18.27;;
59555;SDS011;45374;52.746;6.304;2023-04-08T05:25:09;39.25;;;18.35;;
59555;SDS011;45374;52.746;6.304;2023-04-08T05:27:35;36.25;;;17.58;;
59555;SDS011;45374;52.746;6.304;2023-04-08T05:30:01;35.50;;;17.55;;
59555;SDS011;45374;52.746;6.304;2023-04-08T05:32:26;35.95;;;18.80;;
59555;SDS011;45374;52.746;6.304;2023-04-08T05:34:53;36.78;;;17.60;;
59555;SDS011;45374;52.746;6.304;2023-04-08T05:37:19;35.97;;;18.13;;
59555;SDS011;45374;52.746;6.304;2023-04-08T05:39:45;36.45;;;19.00;;
59555;SDS011;45374;52.746;6.304;2023-04-08T05:42:11;36.88;;;18.40;;
59555;SDS011;45374;52.746;6.304;2023-04-08T05:44:37;38.08;;;18.27;;
59555;SDS011;45374;52.746;6.304;2023-04-08T05:47:05;37.25;;;17.58;;
59555;SDS011;45374;52.746;6.304;2023-04-08T05:49:30;36.30;;;17.85;;
59555;SDS011;45374;52.746;6.304;2023-04-08T05:51:57;35.25;;;17.95;;
59555;SDS011;45374;52.746;6.304;2023-04-08T05:54:23;35.78;;;18.15;;
59555;SDS011;45374;52.746;6.304;2023-04-08T05:56:49;34.40;;;17.80;;
59555;SDS011;45374;52.746;6.304;2023-04-08T05:59:14;31.80;;;17.05;;
59555;SDS011;45374;52.746;6.304;2023-04-08T06:01:40;33.53;;;16.80;;
59555;SDS011;45374;52.746;6.304;2023-04-08T06:04:06;35.97;;;17.60;;
59555;SDS011;45374;52.746;6.304;2023-04-08T06:06:31;34.85;;;17.65;;
59555;SDS011;45374;52.746;6.304;2023-04-08T06:08:57;35.78;;;19.20;;
59555;SDS011;45374;52.746;6.304;2023-04-08T06:11:22;39.85;;;20.05;;
59555;SDS011;45374;52.746;6.304;2023-04-08T06:13:48;41.17;;;20.05;;
59555;SDS011;45374;52.746;6.304;2023-04-08T06:16:14;42.78;;;21.35;;
59555;SDS011;45374;52.746;6.304;2023-04-08T06:18:41;35.85;;;19.40;;
59555;SDS011;45374;52.746;6.304;2023-04-08T06:21:07;39.72;;;20.13;;
59555;SDS011;45374;52.746;6.304;2023-04-08T06:23:33;39.70;;;20.33;;
59555;SDS011;45374;52.746;6.304;2023-04-08T06:25:59;38.92;;;19.73;;
59555;SDS011;45374;52.746;6.304;2023-04-08T06:28:24;43.00;;;20.38;;
59555;SDS011;45374;52.746;6.304;2023-04-08T06:30:50;35.60;;;19.30;;
59555;SDS011;45374;52.746;6.304;2023-04-08T06:33:15;39.92;;;19.38;;
59555;SDS011;45374;52.746;6.304;2023-04-08T06:35:41;40.08;;;20.67;;
59555;SDS011;45374;52.746;6.304;2023-04-08T06:38:06;39.90;;;20.73;;
59555;SDS011;45374;52.746;6.304;2023-04-08T06:40:32;43.65;;;21.42;;
59555;SDS011;45374;52.746;6.304;2023-04-08T06:42:58;38.50;;;20.02;;
59555;SDS011;45374;52.746;6.304;2023-04-08T06:45:23;42.83;;;20.40;;
59555;SDS011;45374;52.746;6.304;2023-04-08T06:47:49;41.30;;;20.45;;
59555;SDS011;45374;52.746;6.304;2023-04-08T06:50:14;42.05;;;21.73;;
59555;SDS011;45374;52.746;6.304;2023-04-08T06:52:40;44.65;;;22.05;;
59555;SDS011;45374;52.746;6.304;2023-04-08T06:55:06;45.28;;;21.48;;
59555;SDS011;45374;52.746;6.304;2023-04-08T06:57:31;44.03;;;21.80;;
59555;SDS011;45374;52.746;6.304;2023-04-08T06:59:57;47.20;;;22.35;;
59555;SDS011;45374;52.746;6.304;2023-04-08T07:02:24;41.53;;;20.77;;
59555;SDS011;45374;52.746;6.304;2023-04-08T07:04:50;40.45;;;21.55;;
59555;SDS011;45374;52.746;6.304;2023-04-08T07:07:15;41.25;;;21.25;;
59555;SDS011;45374;52.746;6.304;2023-04-08T07:09:41;43.55;;;20.88;;
59555;SDS011;45374;52.746;6.304;2023-04-08T07:12:09;43.75;;;22.10;;
59555;SDS011;45374;52.746;6.304;2023-04-08T07:14:35;41.55;;;21.23;;
59555;SDS011;45374;52.746;6.304;2023-04-08T07:17:01;42.72;;;20.50;;
59555;SDS011;45374;52.746;6.304;2023-04-08T07:19:27;42.90;;;21.27;;
59555;SDS011;45374;52.746;6.304;2023-04-08T07:21:52;42.80;;;21.20;;
59555;SDS011;45374;52.746;6.304;2023-04-08T07:24:18;45.95;;;22.42;;
59555;SDS011;45374;52.746;6.304;2023-04-08T07:26:43;40.78;;;20.42;;
59555;SDS011;45374;52.746;6.304;2023-04-08T07:29:09;44.17;;;21.20;;
59555;SDS011;45374;52.746;6.304;2023-04-08T07:31:35;40.70;;;21.80;;
59555;SDS011;45374;52.746;6.304;2023-04-08T07:34:00;40.08;;;21.85;;
59555;SDS011;45374;52.746;6.304;2023-04-08T07:36:27;42.60;;;21.05;;
59555;SDS011;45374;52.746;6.304;2023-04-08T07:38:53;41.28;;;19.83;;
59555;SDS011;45374;52.746;6.304;2023-04-08T07:41:18;41.55;;;22.10;;
59555;SDS011;45374;52.746;6.304;2023-04-08T07:43:45;39.35;;;20.90;;
59555;SDS011;45374;52.746;6.304;2023-04-08T07:46:10;38.75;;;20.20;;
59555;SDS011;45374;52.746;6.304;2023-04-08T07:48:36;43.97;;;22.52;;
59555;SDS011;45374;52.746;6.304;2023-04-08T07:51:03;45.65;;;22.65;;
59555;SDS011;45374;52.746;6.304;2023-04-08T07:53:34;41.83;;;22.42;;
59555;SDS011;45374;52.746;6.304;2023-04-08T07:56:00;45.42;;;22.65;;
59555;SDS011;45374;52.746;6.304;2023-04-08T07:58:28;41.85;;;21.38;;
59555;SDS011;45374;52.746;6.304;2023-04-08T08:00:53;40.38;;;21.83;;
59555;SDS011;45374;52.746;6.304;2023-04-08T08:03:21;40.63;;;21.58;;
59555;SDS011;45374;52.746;6.304;2023-04-08T08:05:46;40.60;;;21.65;;
59555;SDS011;45374;52.746;6.304;2023-04-08T08:08:12;39.30;;;20.27;;
59555;SDS011;45374;52.746;6.304;2023-04-08T08:10:38;41.67;;;21.63;;
59555;SDS011;45374;52.746;6.304;2023-04-08T08:13:05;40.08;;;21.95;;
59555;SDS011;45374;52.746;6.304;2023-04-08T08:15:31;38.67;;;20.65;;
59555;SDS011;45374;52.746;6.304;2023-04-08T08:17:57;42.60;;;22.88;;
59555;SDS011;45374;52.746;6.304;2023-04-08T08:20:22;41.20;;;21.08;;
59555;SDS011;45374;52.746;6.304;2023-04-08T08:22:48;30.85;;;15.43;;
59555;SDS011;45374;52.746;6.304;2023-04-08T08:25:13;36.05;;;19.42;;
59555;SDS011;45374;52.746;6.304;2023-04-08T08:27:39;36.38;;;20.58;;
59555;SDS011;45374;52.746;6.304;2023-04-08T08:30:06;31.83;;;18.88;;
59555;SDS011;45374;52.746;6.304;2023-04-08T08:32:33;34.00;;;19.13;;
59555;SDS011;45374;52.746;6.304;2023-04-08T08:34:58;32.58;;;18.83;;
59555;SDS011;45374;52.746;6.304;2023-04-08T08:37:24;35.35;;;19.30;;
59555;SDS011;45374;52.746;6.304;2023-04-08T08:39:49;32.15;;;18.30;;
59555;SDS011;45374;52.746;6.304;2023-04-08T08:42:22;30.58;;;16.95;;
59555;SDS011;45374;52.746;6.304;2023-04-08T08:44:48;27.25;;;16.17;;
59555;SDS011;45374;52.746;6.304;2023-04-08T08:47:14;28.40;;;17.13;;
59555;SDS011;45374;52.746;6.304;2023-04-08T08:49:41;26.83;;;17.02;;
59555;SDS011;45374;52.746;6.304;2023-04-08T08:52:06;30.65;;;16.85;;
59555;SDS011;45374;52.746;6.304;2023-04-08T08:54:32;24.80;;;13.25;;
59555;SDS011;45374;52.746;6.304;2023-04-08T09:00:09;28.90;;;16.45;;
59555;SDS011;45374;52.746;6.304;2023-04-08T09:02:39;27.67;;;16.67;;
59555;SDS011;45374;52.746;6.304;2023-04-08T09:05:05;26.98;;;14.70;;
59555;SDS011;45374;52.746;6.304;2023-04-08T09:07:31;28.90;;;17.50;;
59555;SDS011;45374;52.746;6.304;2023-04-08T09:10:00;24.05;;;14.07;;
59555;SDS011;45374;52.746;6.304;2023-04-08T09:12:30;26.85;;;17.08;;
59555;SDS011;45374;52.746;6.304;2023-04-08T09:15:05;28.25;;;16.17;;
59555;SDS011;45374;52.746;6.304;2023-04-08T09:17:36;28.80;;;16.77;;
59555;SDS011;45374;52.746;6.304;2023-04-08T09:20:04;21.13;;;13.23;;
59555;SDS011;45374;52.746;6.304;2023-04-08T09:22:57;26.10;;;14.48;;
59555;SDS011;45374;52.746;6.304;2023-04-08T09:28:56;27.45;;;17.23;;
59555;SDS011;45374;52.746;6.304;2023-04-08T09:34:09;26.45;;;14.45;;
59555;SDS011;45374;52.746;6.304;2023-04-08T09:36:36;26.27;;;13.75;;
59555;SDS011;45374;52.746;6.304;2023-04-08T09:39:13;28.75;;;17.45;;
59555;SDS011;45374;52.746;6.304;2023-04-08T09:41:39;31.00;;;18.77;;
59555;SDS011;45374;52.746;6.304;2023-04-08T09:44:07;23.75;;;13.50;;
59555;SDS011;45374;52.746;6.304;2023-04-08T09:51:52;25.30;;;15.73;;
59555;SDS011;45374;52.746;6.304;2023-04-08T09:57:40;28.27;;;16.92;;
59555;SDS011;45374;52.746;6.304;2023-04-08T10:00:12;26.83;;;17.75;;
59555;SDS011;45374;52.746;6.304;2023-04-08T10:05:47;25.35;;;13.70;;
59555;SDS011;45374;52.746;6.304;2023-04-08T10:08:14;23.20;;;15.43;;
59555;SDS011;45374;52.746;6.304;2023-04-08T10:13:20;23.95;;;15.63;;
59555;SDS011;45374;52.746;6.304;2023-04-08T10:15:46;25.00;;;15.75;;
59555;SDS011;45374;52.746;6.304;2023-04-08T10:23:04;24.33;;;15.73;;
59555;SDS011;45374;52.746;6.304;2023-04-08T10:25:34;25.63;;;16.77;;
59555;SDS011;45374;52.746;6.304;2023-04-08T10:30:50;24.83;;;16.50;;
59555;SDS011;45374;52.746;6.304;2023-04-08T10:35:53;24.10;;;16.23;;
59555;SDS011;45374;52.746;6.304;2023-04-08T10:38:23;22.30;;;14.65;;
59555;SDS011;45374;52.746;6.304;2023-04-08T10:40:50;25.40;;;15.27;;
59555;SDS011;45374;52.746;6.304;2023-04-08T10:43:16;22.90;;;15.55;;
59555;SDS011;45374;52.746;6.304;2023-04-08T10:45:42;22.00;;;14.05;;
59555;SDS011;45374;52.746;6.304;2023-04-08T10:50:37;24.70;;;16.50;;
59555;SDS011;45374;52.746;6.304;2023-04-08T10:53:02;25.80;;;16.83;;
59555;SDS011;45374;52.746;6.304;2023-04-08T10:55:29;22.88;;;15.40;;
59555;SDS011;45374;52.746;6.304;2023-04-08T10:57:55;26.00;;;17.05;;
59555;SDS011;45374;52.746;6.304;2023-04-08T11:00:33;23.70;;;15.90;;
59555;SDS011;45374;52.746;6.304;2023-04-08T11:03:04;23.05;;;15.07;;
59555;SDS011;45374;52.746;6.304;2023-04-08T11:05:32;24.08;;;16.52;;
59555;SDS011;45374;52.746;6.304;2023-04-08T11:07:58;21.55;;;15.73;;
59555;SDS011;45374;52.746;6.304;2023-04-08T11:10:25;26.83;;;16.67;;
59555;SDS011;45374;52.746;6.304;2023-04-08T11:12:53;23.65;;;16.75;;
59555;SDS011;45374;52.746;6.304;2023-04-08T11:15:19;23.77;;;16.92;;
59555;SDS011;45374;52.746;6.304;2023-04-08T11:17:46;23.13;;;15.68;;
59555;SDS011;45374;52.746;6.304;2023-04-08T11:20:12;21.27;;;14.23;;
59555;SDS011;45374;52.746;6.304;2023-04-08T11:22:38;23.20;;;14.38;;
59555;SDS011;45374;52.746;6.304;2023-04-08T11:25:05;26.17;;;16.85;;
59555;SDS011;45374;52.746;6.304;2023-04-08T11:27:33;26.38;;;17.48;;
59555;SDS011;45374;52.746;6.304;2023-04-08T11:29:59;25.60;;;17.70;;
59555;SDS011;45374;52.746;6.304;2023-04-08T11:32:28;24.05;;;15.88;;
59555;SDS011;45374;52.746;6.304;2023-04-08T11:34:54;23.63;;;16.17;;
59555;SDS011;45374;52.746;6.304;2023-04-08T11:37:19;22.80;;;15.70;;
59555;SDS011;45374;52.746;6.304;2023-04-08T11:39:46;24.50;;;16.48;;
59555;SDS011;45374;52.746;6.304;2023-04-08T11:42:28;23.35;;;15.27;;
59555;SDS011;45374;52.746;6.304;2023-04-08T11:44:57;21.13;;;14.18;;
59555;SDS011;45374;52.746;6.304;2023-04-08T11:47:30;23.50;;;16.08;;
59555;SDS011;45374;52.746;6.304;2023-04-08T11:49:57;22.13;;;16.17;;
59555;SDS011;45374;52.746;6.304;2023-04-08T11:52:38;20.90;;;14.48;;
59555;SDS011;45374;52.746;6.304;2023-04-08T11:55:24;21.90;;;15.38;;
59555;SDS011;45374;52.746;6.304;2023-04-08T12:01:01;20.02;;;14.95;;
59555;SDS011;45374;52.746;6.304;2023-04-08T12:03:27;20.80;;;14.23;;
59555;SDS011;45374;52.746;6.304;2023-04-08T12:05:52;20.77;;;15.25;;
59555;SDS011;45374;52.746;6.304;2023-04-08T12:08:18;21.10;;;14.95;;
59555;SDS011;45374;52.746;6.304;2023-04-08T12:10:44;19.50;;;14.65;;
59555;SDS011;45374;52.746;6.304;2023-04-08T12:13:09;19.33;;;13.82;;
59555;SDS011;45374;52.746;6.304;2023-04-08T12:15:35;21.88;;;14.90;;
59555;SDS011;45374;52.746;6.304;2023-04-08T12:18:00;22.15;;;15.50;;
59555;SDS011;45374;52.746;6.304;2023-04-08T12:20:26;19.50;;;14.68;;
59555;SDS011;45374;52.746;6.304;2023-04-08T12:22:51;20.13;;;14.18;;
59555;SDS011;45374;52.746;6.304;2023-04-08T12:25:17;19.70;;;14.52;;
59555;SDS011;45374;52.746;6.304;2023-04-08T12:27:42;18.63;;;14.10;;
59555;SDS011;45374;52.746;6.304;2023-04-08T12:30:08;18.10;;;13.50;;
59555;SDS011;45374;52.746;6.304;2023-04-08T12:32:34;16.85;;;11.43;;
59555;SDS011;45374;52.746;6.304;2023-04-08T12:35:17;17.35;;;13.18;;
59555;SDS011;45374;52.746;6.304;2023-04-08T12:37:42;17.70;;;13.40;;
59555;SDS011;45374;52.746;6.304;2023-04-08T12:40:10;15.85;;;11.98;;
59555;SDS011;45374;52.746;6.304;2023-04-08T12:42:36;16.77;;;12.95;;
59555;SDS011;45374;52.746;6.304;2023-04-08T12:45:01;18.08;;;12.50;;
59555;SDS011;45374;52.746;6.304;2023-04-08T12:47:27;17.35;;;12.98;;
59555;SDS011;45374;52.746;6.304;2023-04-08T12:49:52;17.58;;;12.77;;
59555;SDS011;45374;52.746;6.304;2023-04-08T12:52:18;16.05;;;12.35;;
59555;SDS011;45374;52.746;6.304;2023-04-08T12:54:43;15.75;;;11.75;;
59555;SDS011;45374;52.746;6.304;2023-04-08T12:57:09;16.45;;;11.82;;
59555;SDS011;45374;52.746;6.304;2023-04-08T12:59:36;14.85;;;11.43;;
59555;SDS011;45374;52.746;6.304;2023-04-08T13:02:03;14.63;;;10.35;;
59555;SDS011;45374;52.746;6.304;2023-04-08T13:04:29;14.20;;;10.75;;
59555;SDS011;45374;52.746;6.304;2023-04-08T13:06:54;14.13;;;10.88;;
59555;SDS011;45374;52.746;6.304;2023-04-08T13:09:21;13.48;;;10.63;;
59555;SDS011;45374;52.746;6.304;2023-04-08T13:11:46;13.85;;;10.18;;
59555;SDS011;45374;52.746;6.304;2023-04-08T13:14:12;14.77;;;10.60;;
59555;SDS011;45374;52.746;6.304;2023-04-08T13:16:37;12.98;;;9.98;;
59555;SDS011;45374;52.746;6.304;2023-04-08T13:19:03;13.68;;;9.93;;
59555;SDS011;45374;52.746;6.304;2023-04-08T13:21:28;13.30;;;9.70;;
59555;SDS011;45374;52.746;6.304;2023-04-08T13:23:55;15.38;;;11.00;;
59555;SDS011;45374;52.746;6.304;2023-04-08T13:26:20;15.25;;;10.95;;
59555;SDS011;45374;52.746;6.304;2023-04-08T13:28:46;14.23;;;10.55;;
59555;SDS011;45374;52.746;6.304;2023-04-08T13:31:11;14.88;;;10.82;;
59555;SDS011;45374;52.746;6.304;2023-04-08T13:33:37;13.95;;;10.15;;
59555;SDS011;45374;52.746;6.304;2023-04-08T13:36:02;15.57;;;11.40;;
59555;SDS011;45374;52.746;6.304;2023-04-08T13:38:28;14.73;;;10.85;;
59555;SDS011;45374;52.746;6.304;2023-04-08T13:40:54;15.35;;;11.55;;
59555;SDS011;45374;52.746;6.304;2023-04-08T13:43:20;13.57;;;10.35;;
59555;SDS011;45374;52.746;6.304;2023-04-08T13:45:46;15.48;;;11.48;;
59555;SDS011;45374;52.746;6.304;2023-04-08T13:48:12;14.35;;;10.63;;
59555;SDS011;45374;52.746;6.304;2023-04-08T13:50:37;16.23;;;10.73;;
59555;SDS011;45374;52.746;6.304;2023-04-08T13:53:04;16.08;;;11.18;;
59555;SDS011;45374;52.746;6.304;2023-04-08T13:55:29;16.25;;;10.68;;
59555;SDS011;45374;52.746;6.304;2023-04-08T13:57:55;15.30;;;10.30;;
59555;SDS011;45374;52.746;6.304;2023-04-08T14:00:20;15.65;;;10.38;;
59555;SDS011;45374;52.746;6.304;2023-04-08T14:02:46;15.27;;;11.15;;
59555;SDS011;45374;52.746;6.304;2023-04-08T14:05:12;14.82;;;10.80;;
59555;SDS011;45374;52.746;6.304;2023-04-08T14:07:37;16.65;;;11.52;;
59555;SDS011;45374;52.746;6.304;2023-04-08T14:10:03;16.80;;;11.48;;
59555;SDS011;45374;52.746;6.304;2023-04-08T14:12:29;16.42;;;11.30;;
59555;SDS011;45374;52.746;6.304;2023-04-08T14:14:54;20.38;;;13.02;;
59555;SDS011;45374;52.746;6.304;2023-04-08T14:17:20;18.55;;;12.20;;
59555;SDS011;45374;52.746;6.304;2023-04-08T14:19:45;20.38;;;13.38;;
59555;SDS011;45374;52.746;6.304;2023-04-08T14:22:11;20.98;;;13.23;;
59555;SDS011;45374;52.746;6.304;2023-04-08T14:24:36;19.95;;;13.13;;
59555;SDS011;45374;52.746;6.304;2023-04-08T14:27:02;19.05;;;13.10;;
59555;SDS011;45374;52.746;6.304;2023-04-08T14:29:27;22.10;;;13.55;;
59555;SDS011;45374;52.746;6.304;2023-04-08T14:31:56;22.05;;;13.43;;
59555;SDS011;45374;52.746;6.304;2023-04-08T14:34:22;21.65;;;14.05;;
59555;SDS011;45374;52.746;6.304;2023-04-08T14:36:47;21.80;;;13.27;;
59555;SDS011;45374;52.746;6.304;2023-04-08T14:39:13;23.13;;;13.85;;
59555;SDS011;45374;52.746;6.304;2023-04-08T14:41:38;25.13;;;15.18;;
59555;SDS011;45374;52.746;6.304;2023-04-08T14:44:04;26.80;;;14.45;;
59555;SDS011;45374;52.746;6.304;2023-04-08T14:46:30;24.58;;;15.55;;
59555;SDS011;45374;52.746;6.304;2023-04-08T14:48:55;26.83;;;16.30;;
59555;SDS011;45374;52.746;6.304;2023-04-08T14:51:30;23.75;;;14.73;;
59555;SDS011;45374;52.746;6.304;2023-04-08T14:53:57;26.55;;;15.93;;
59555;SDS011;45374;52.746;6.304;2023-04-08T14:56:22;26.65;;;16.40;;
59555;SDS011;45374;52.746;6.304;2023-04-08T14:58:48;26.42;;;15.40;;
59555;SDS011;45374;52.746;6.304;2023-04-08T15:01:13;25.80;;;15.82;;
59555;SDS011;45374;52.746;6.304;2023-04-08T15:03:39;27.33;;;16.67;;